createdAt,value
2023-04-18T00:01:28.938Z,15.33
2023-04-18T00:03:58.506Z,18.30
2023-04-18T00:06:27.245Z,19.10
2023-04-18T00:08:57.451Z,16.53
2023-04-18T00:11:26.248Z,14.77
2023-04-18T00:13:55.291Z,19.17
2023-04-18T00:16:24.318Z,19.67
2023-04-18T00:18:53.779Z,17.13
2023-04-18T00:21:25.538Z,14.93
2023-04-18T00:23:54.307Z,16.83
2023-04-18T00:26:24.570Z,17.83
2023-04-18T00:28:53.553Z,16.93
2023-04-18T00:31:22.231Z,15.97
2023-04-18T00:33:52.711Z,19.30
2023-04-18T00:36:21.633Z,17.27
2023-04-18T00:38:50.460Z,18.50
2023-04-18T00:41:19.285Z,17.43
2023-04-18T00:43:49.361Z,18.90
2023-04-18T00:46:18.043Z,19.50
2023-04-18T00:48:46.969Z,18.57
2023-04-18T00:51:16.306Z,16.77
2023-04-18T00:53:46.199Z,17.13
2023-04-18T00:56:15.664Z,18.23
2023-04-18T00:58:44.501Z,17.40
2023-04-18T01:01:14.688Z,17.97
2023-04-18T01:03:45.089Z,18.13
2023-04-18T01:06:17.363Z,17.53
2023-04-18T01:08:46.522Z,19.17
2023-04-18T01:11:15.260Z,19.47
2023-04-18T01:13:44.182Z,18.97
2023-04-18T01:16:14.484Z,19.23
2023-04-18T01:18:43.367Z,23.93
2023-04-18T01:21:12.618Z,18.47
2023-04-18T01:23:41.321Z,22.43
2023-04-18T01:26:11.615Z,21.93
2023-04-18T01:28:40.404Z,21.63
2023-04-18T01:31:09.988Z,25.43
2023-04-18T01:33:38.865Z,22.80
2023-04-18T01:36:07.948Z,20.50
2023-04-18T01:38:36.529Z,23.13
2023-04-18T01:41:05.442Z,23.43
2023-04-18T01:43:35.702Z,23.97
2023-04-18T01:46:05.731Z,23.30
2023-04-18T01:48:34.492Z,21.80
2023-04-18T01:51:03.125Z,23.67
2023-04-18T01:53:33.397Z,21.87
2023-04-18T01:56:02.390Z,22.13
2023-04-18T01:58:31.111Z,25.50
2023-04-18T02:01:01.600Z,24.50
2023-04-18T02:03:30.697Z,22.60
2023-04-18T02:05:59.666Z,23.73
2023-04-18T02:08:28.450Z,26.43
2023-04-18T02:10:57.240Z,24.27
2023-04-18T02:13:25.858Z,24.83
2023-04-18T02:15:54.594Z,25.13
2023-04-18T02:18:26.646Z,24.47
2023-04-18T02:20:55.244Z,23.50
2023-04-18T02:23:24.200Z,22.70
2023-04-18T02:25:53.558Z,23.23
2023-04-18T02:28:22.381Z,25.80
2023-04-18T02:30:50.994Z,24.97
2023-04-18T02:33:19.755Z,23.73
2023-04-18T02:35:49.716Z,22.60
2023-04-18T02:38:18.532Z,26.90
2023-04-18T02:40:47.388Z,23.67
2023-04-18T02:43:16.036Z,25.43
2023-04-18T02:45:44.712Z,24.47
2023-04-18T02:48:13.458Z,24.63
2023-04-18T02:50:42.309Z,23.87
2023-04-18T02:53:12.449Z,24.37
2023-04-18T02:55:52.957Z,23.63
2023-04-18T02:58:24.873Z,23.30
2023-04-18T03:01:32.254Z,24.13
2023-04-18T03:04:11.283Z,25.77
2023-04-18T03:06:44.404Z,24.97
2023-04-18T03:09:14.994Z,26.70
2023-04-18T03:11:48.250Z,25.17
2023-04-18T03:14:17.992Z,25.77
2023-04-18T03:16:55.205Z,24.67
2023-04-18T03:19:28.705Z,25.27
2023-04-18T03:22:00.437Z,23.10
2023-04-18T03:24:30.905Z,28.27
2023-04-18T03:27:02.648Z,25.70
2023-04-18T03:29:31.533Z,29.17
2023-04-18T03:32:00.497Z,25.77
2023-04-18T03:34:30.390Z,24.17
2023-04-18T03:36:59.181Z,24.73
2023-04-18T03:39:31.728Z,23.93
2023-04-18T03:42:01.525Z,24.57
2023-04-18T03:44:30.282Z,27.43
2023-04-18T03:46:59.061Z,24.90
2023-04-18T03:49:28.432Z,27.00
2023-04-18T03:51:57.350Z,25.53
2023-04-18T03:54:26.809Z,24.80
2023-04-18T03:56:59.356Z,24.93
2023-04-18T03:59:28.929Z,25.30
2023-04-18T04:01:57.652Z,26.10
2023-04-18T04:04:26.821Z,27.00
2023-04-18T04:06:55.913Z,26.47
2023-04-18T04:09:24.506Z,27.80
2023-04-18T04:11:53.195Z,26.63
2023-04-18T04:14:24.658Z,29.07
2023-04-18T04:16:55.427Z,24.60
2023-04-18T04:19:24.836Z,25.90
2023-04-18T04:22:04.139Z,27.83
2023-04-18T04:24:34.289Z,24.53
2023-04-18T04:27:03.718Z,26.67
2023-04-18T04:29:35.299Z,23.10
2023-04-18T04:32:05.750Z,25.53
2023-04-18T04:34:41.514Z,24.10
2023-04-18T04:37:14.086Z,25.43
2023-04-18T04:39:56.575Z,26.23
2023-04-18T04:42:49.207Z,22.50
2023-04-18T04:45:25.505Z,26.10
2023-04-18T04:47:54.416Z,24.60
2023-04-18T04:50:23.479Z,24.43
2023-04-18T04:52:52.238Z,27.30
2023-04-18T04:55:21.418Z,25.80
2023-04-18T04:57:50.112Z,25.93
2023-04-18T05:00:41.729Z,25.93
2023-04-18T05:03:10.910Z,22.67
2023-04-18T05:05:39.912Z,24.67
2023-04-18T05:08:08.801Z,24.03
2023-04-18T05:10:37.696Z,25.73
2023-04-18T05:13:06.562Z,27.60
2023-04-18T05:15:36.015Z,27.17
2023-04-18T05:18:06.291Z,25.77
2023-04-18T05:20:35.030Z,22.20
2023-04-18T05:23:03.676Z,27.00
2023-04-18T05:25:33.638Z,26.33
2023-04-18T05:28:04.546Z,26.63
2023-04-18T05:30:33.238Z,29.47
2023-04-18T05:33:01.951Z,26.13
2023-04-18T05:35:32.765Z,28.10
2023-04-18T05:38:01.525Z,27.07
2023-04-18T05:40:30.310Z,25.67
2023-04-18T05:42:59.082Z,25.90
2023-04-18T05:45:27.902Z,24.17
2023-04-18T05:47:56.601Z,28.90
2023-04-18T05:50:25.362Z,26.17
2023-04-18T05:52:58.884Z,23.90
2023-04-18T05:55:27.559Z,24.43
2023-04-18T05:57:56.202Z,24.93
2023-04-18T06:00:25.265Z,24.37
2023-04-18T06:02:53.961Z,23.10
2023-04-18T06:05:22.969Z,23.43
2023-04-18T06:07:51.883Z,22.37
2023-04-18T06:10:22.074Z,25.97
2023-04-18T06:12:50.703Z,20.03
2023-04-18T06:15:19.437Z,22.93
2023-04-18T06:17:48.270Z,23.30
2023-04-18T06:20:17.044Z,21.20
2023-04-18T06:22:45.721Z,21.17
2023-04-18T06:25:14.552Z,20.23
2023-04-18T06:27:44.542Z,19.47
2023-04-18T06:30:15.444Z,22.10
2023-04-18T06:32:44.546Z,19.73
2023-04-18T06:35:13.169Z,19.37
2023-04-18T06:37:44.077Z,20.70
2023-04-18T06:40:13.676Z,18.87
2023-04-18T06:42:44.900Z,19.00
2023-04-18T06:45:14.225Z,22.07
2023-04-18T06:47:43.088Z,19.27
2023-04-18T06:50:12.228Z,21.30
2023-04-18T06:52:44.481Z,19.57
2023-04-18T06:55:14.331Z,21.97
2023-04-18T06:57:45.136Z,20.00
2023-04-18T07:00:14.924Z,20.10
2023-04-18T07:02:43.940Z,21.17
2023-04-18T07:05:12.939Z,21.67
2023-04-18T07:07:41.778Z,21.07
2023-04-18T07:10:11.822Z,23.27
2023-04-18T07:12:40.397Z,20.70
2023-04-18T07:15:11.679Z,19.37
2023-04-18T07:17:40.561Z,20.00
2023-04-18T07:20:12.335Z,20.17
2023-04-18T07:22:43.123Z,19.30
2023-04-18T07:25:11.753Z,19.73
2023-04-18T07:27:40.447Z,19.60
2023-04-18T07:30:12.143Z,18.17
2023-04-18T07:32:40.983Z,21.97
2023-04-18T07:35:10.643Z,21.37
2023-04-18T07:37:39.571Z,19.27
2023-04-18T07:40:09.273Z,19.10
2023-04-18T07:42:38.081Z,19.53
2023-04-18T07:45:08.413Z,18.37
2023-04-18T07:47:38.640Z,17.77
2023-04-18T07:50:08.648Z,19.77
2023-04-18T07:52:38.297Z,20.00
2023-04-18T07:55:09.299Z,17.97
2023-04-18T07:57:38.102Z,19.93
2023-04-18T08:00:08.737Z,17.60
2023-04-18T08:02:43.112Z,17.30
2023-04-18T08:05:12.247Z,16.90
2023-04-18T08:07:43.570Z,18.23
2023-04-18T08:10:12.670Z,18.13
2023-04-18T08:12:41.729Z,17.83
2023-04-18T08:15:11.282Z,18.80
2023-04-18T08:17:42.661Z,18.80
2023-04-18T08:20:13.978Z,17.03
2023-04-18T08:22:57.700Z,18.30
2023-04-18T08:25:33.206Z,18.87
2023-04-18T08:28:02.078Z,18.00
2023-04-18T08:30:31.233Z,16.77
2023-04-18T08:33:00.680Z,18.63
2023-04-18T08:35:30.888Z,16.67
2023-04-18T08:37:59.684Z,15.93
2023-04-18T08:40:30.267Z,17.23
2023-04-18T08:43:01.687Z,15.20
2023-04-18T08:45:31.367Z,15.03
2023-04-18T08:48:01.617Z,15.83
2023-04-18T08:50:32.005Z,18.07
2023-04-18T08:53:02.302Z,18.40
2023-04-18T08:55:30.996Z,17.83
2023-04-18T08:57:59.695Z,18.13
2023-04-18T09:00:29.363Z,21.23
2023-04-18T09:02:58.431Z,15.00
2023-04-18T09:05:28.429Z,17.07
2023-04-18T09:07:58.646Z,15.13
2023-04-18T09:10:29.767Z,14.37
2023-04-18T09:12:59.962Z,15.40
2023-04-18T09:15:30.254Z,14.90
2023-04-18T09:18:00.545Z,14.73
2023-04-18T09:20:34.596Z,17.63
2023-04-18T09:23:06.453Z,14.97
2023-04-18T09:25:40.810Z,13.23
2023-04-18T09:28:24.517Z,15.23
2023-04-18T09:30:54.334Z,14.47
2023-04-18T09:33:29.243Z,15.33
2023-04-18T09:36:17.395Z,15.03
2023-04-18T09:38:47.789Z,16.00
2023-04-18T09:41:19.836Z,16.50
2023-04-18T09:43:49.803Z,16.43
2023-04-18T09:46:18.852Z,16.23
2023-04-18T09:48:47.670Z,15.10
2023-04-18T09:51:17.180Z,15.63
2023-04-18T09:53:47.882Z,16.13
2023-04-18T09:56:26.838Z,16.87
2023-04-18T09:59:02.192Z,16.37
2023-04-18T10:01:31.741Z,15.10
2023-04-18T10:04:04.228Z,14.33
2023-04-18T10:06:38.583Z,15.07
2023-04-18T10:09:10.168Z,15.90
2023-04-18T10:11:39.168Z,15.97
2023-04-18T10:14:11.860Z,14.83
2023-04-18T10:16:41.479Z,17.07
2023-04-18T10:19:27.196Z,17.43
2023-04-18T10:21:57.097Z,16.83
2023-04-18T10:24:49.443Z,16.90
2023-04-18T10:27:19.554Z,16.90
2023-04-18T10:29:50.057Z,21.10
2023-04-18T10:32:19.943Z,15.77
2023-04-18T10:34:48.862Z,17.33
2023-04-18T10:37:19.048Z,16.27
2023-04-18T10:39:58.556Z,16.30
2023-04-18T10:43:01.308Z,15.73
2023-04-18T10:45:36.369Z,17.50
2023-04-18T10:48:24.981Z,17.47
2023-04-18T10:51:19.487Z,18.90
2023-04-18T10:53:52.799Z,17.43
2023-04-18T10:56:23.058Z,17.13
2023-04-18T10:58:53.263Z,15.83
2023-04-18T11:01:31.213Z,15.63
2023-04-18T11:04:02.051Z,15.87
2023-04-18T11:06:33.664Z,15.83
2023-04-18T11:09:12.027Z,17.13
2023-04-18T11:11:43.431Z,19.20
2023-04-18T11:14:12.592Z,16.23
2023-04-18T11:16:41.553Z,17.73
2023-04-18T11:19:20.980Z,16.47
2023-04-18T11:21:49.971Z,16.27
2023-04-18T11:24:27.924Z,15.83
2023-04-18T11:26:58.474Z,16.33
2023-04-18T11:29:27.805Z,16.60
2023-04-18T11:31:58.534Z,15.03
2023-04-18T11:34:31.005Z,14.90
2023-04-18T11:37:00.164Z,16.77
2023-04-18T11:39:29.139Z,16.40
2023-04-18T11:42:01.545Z,14.27
2023-04-18T11:44:30.467Z,14.97
2023-04-18T11:46:59.130Z,14.10
2023-04-18T11:49:29.007Z,15.90
2023-04-18T11:51:58.099Z,13.57
2023-04-18T11:54:40.568Z,14.80
2023-04-18T11:57:25.977Z,13.07
2023-04-18T11:59:56.870Z,13.67
2023-04-18T12:02:27.576Z,14.67
2023-04-18T12:04:58.456Z,13.60
2023-04-18T12:07:36.083Z,12.87
2023-04-18T12:10:07.123Z,11.40
2023-04-18T12:12:37.664Z,15.37
2023-04-18T12:15:08.997Z,12.43
2023-04-18T12:17:39.013Z,11.13
2023-04-18T12:20:10.123Z,16.77
2023-04-18T12:22:40.527Z,13.10
2023-04-18T12:25:19.888Z,16.47
2023-04-18T12:27:51.135Z,16.57
2023-04-18T12:30:22.069Z,14.10
2023-04-18T12:32:52.739Z,14.20
2023-04-18T12:35:22.281Z,13.57
2023-04-18T12:37:52.436Z,15.77
2023-04-18T12:40:22.886Z,14.93
2023-04-18T12:42:53.173Z,13.93
2023-04-18T12:45:22.975Z,15.47
2023-04-18T12:47:53.097Z,17.60
2023-04-18T12:50:23.581Z,15.13
2023-04-18T12:52:53.703Z,13.60
2023-04-18T12:55:22.973Z,15.23
2023-04-18T12:57:54.872Z,16.43
2023-04-18T13:00:24.427Z,14.67
2023-04-18T13:02:53.720Z,14.47
2023-04-18T13:05:24.747Z,15.03
2023-04-18T13:08:08.553Z,14.67
2023-04-18T13:10:41.806Z,17.43
2023-04-18T13:13:11.867Z,11.80
2023-04-18T13:15:40.763Z,14.57
2023-04-18T13:18:09.499Z,12.10
2023-04-18T13:20:38.216Z,13.47
2023-04-18T13:23:07.049Z,12.53
2023-04-18T13:25:35.742Z,13.93
2023-04-18T13:28:04.345Z,14.93
2023-04-18T13:30:35.792Z,11.73
2023-04-18T13:33:04.768Z,12.37
2023-04-18T13:35:33.449Z,12.53
2023-04-18T13:38:01.967Z,12.77
2023-04-18T13:40:30.690Z,13.50
2023-04-18T13:42:59.379Z,13.43
2023-04-18T13:45:28.401Z,14.70
2023-04-18T13:47:58.440Z,12.17
2023-04-18T13:50:27.073Z,14.30
2023-04-18T13:52:56.089Z,12.37
2023-04-18T13:55:25.132Z,13.07
2023-04-18T13:57:53.860Z,11.10
2023-04-18T14:00:22.641Z,11.30
2023-04-18T14:02:51.529Z,12.70
2023-04-18T14:05:21.636Z,11.83
2023-04-18T14:07:50.324Z,11.67
2023-04-18T14:10:19.005Z,11.93
2023-04-18T14:12:47.647Z,10.90
2023-04-18T14:15:16.839Z,11.87
2023-04-18T14:17:46.036Z,11.80
2023-04-18T14:20:19.140Z,11.57
2023-04-18T14:22:53.041Z,14.40
2023-04-18T14:25:22.252Z,11.23
2023-04-18T14:28:04.269Z,11.33
2023-04-18T14:30:32.976Z,11.30
2023-04-18T14:33:01.798Z,11.63
2023-04-18T14:35:30.733Z,12.63
2023-04-18T14:38:00.846Z,13.17
2023-04-18T14:40:32.079Z,11.87
2023-04-18T14:43:01.454Z,10.63
2023-04-18T14:45:33.307Z,10.83
2023-04-18T14:48:02.198Z,10.73
2023-04-18T14:50:31.054Z,10.83
2023-04-18T14:53:01.517Z,10.97
2023-04-18T14:55:30.438Z,12.27
2023-04-18T14:57:59.244Z,12.00
2023-04-18T15:00:28.208Z,10.90
2023-04-18T15:02:57.106Z,8.47
2023-04-18T15:05:28.273Z,8.53
2023-04-18T15:08:15.820Z,9.13
2023-04-18T15:10:46.479Z,9.70
2023-04-18T15:13:15.766Z,8.40
2023-04-18T15:15:44.820Z,9.87
2023-04-18T15:18:13.863Z,8.60
2023-04-18T15:20:42.612Z,9.33
2023-04-18T15:23:13.809Z,10.33
2023-04-18T15:25:42.894Z,12.00
2023-04-18T15:28:13.303Z,9.37
2023-04-18T15:30:42.311Z,9.70
2023-04-18T15:33:11.369Z,9.97
2023-04-18T15:35:40.152Z,8.27
2023-04-18T15:38:09.000Z,9.07
2023-04-18T15:40:39.304Z,9.03
2023-04-18T15:43:08.249Z,8.80
2023-04-18T15:45:37.377Z,8.87
2023-04-18T15:48:06.673Z,8.87
2023-04-18T15:50:35.631Z,17.00
2023-04-18T15:53:04.556Z,10.00
2023-04-18T15:55:34.451Z,12.47
2023-04-18T15:58:05.088Z,11.13
2023-04-18T16:00:33.998Z,9.47
2023-04-18T16:03:02.889Z,13.87
2023-04-18T16:05:32.046Z,9.43
2023-04-18T16:08:02.367Z,9.77
2023-04-18T16:10:32.404Z,11.53
2023-04-18T16:13:02.399Z,10.10
2023-04-18T16:15:33.077Z,10.27
2023-04-18T16:18:01.899Z,12.13
2023-04-18T16:20:33.197Z,11.00
2023-04-18T16:23:01.976Z,11.90
2023-04-18T16:25:30.692Z,11.47
2023-04-18T16:27:59.516Z,11.73
2023-04-18T16:30:28.272Z,12.13
2023-04-18T16:32:58.475Z,13.60
2023-04-18T16:35:27.606Z,11.40
2023-04-18T16:37:56.421Z,10.40
2023-04-18T16:40:30.381Z,13.70
2023-04-18T16:42:59.531Z,12.13
2023-04-18T16:45:28.332Z,12.23
2023-04-18T16:47:58.592Z,12.73
2023-04-18T16:50:29.015Z,11.40
2023-04-18T16:52:57.634Z,12.37
2023-04-18T16:55:26.893Z,10.40
2023-04-18T16:57:55.780Z,11.47
2023-04-18T17:00:25.057Z,26.37
2023-04-18T17:02:55.667Z,11.27
2023-04-18T17:05:26.012Z,13.47
2023-04-18T17:07:56.001Z,12.10
2023-04-18T17:10:24.850Z,11.87
2023-04-18T17:12:53.679Z,12.43
2023-04-18T17:15:22.674Z,12.00
2023-04-18T17:17:51.507Z,13.57
2023-04-18T17:20:20.684Z,16.30
2023-04-18T17:22:51.109Z,15.63
2023-04-18T17:25:19.985Z,16.27
2023-04-18T17:27:48.715Z,15.60
2023-04-18T17:30:17.487Z,12.63
2023-04-18T17:32:47.089Z,13.00
2023-04-18T17:35:15.873Z,12.33
2023-04-18T17:37:44.590Z,11.87
2023-04-18T17:40:15.370Z,18.20
2023-04-18T17:42:44.166Z,14.10
2023-04-18T17:45:12.921Z,18.70
2023-04-18T17:47:42.058Z,16.53
2023-04-18T17:50:11.777Z,15.27
2023-04-18T17:52:40.695Z,13.57
2023-04-18T17:55:10.030Z,15.00
2023-04-18T17:57:40.228Z,15.73
2023-04-18T18:00:11.846Z,15.63
2023-04-18T18:02:43.688Z,18.90
2023-04-18T18:05:14.341Z,15.50
2023-04-18T18:07:47.358Z,15.23
2023-04-18T18:10:20.143Z,16.33
2023-04-18T18:12:50.491Z,15.37
2023-04-18T18:15:19.634Z,14.77
2023-04-18T18:17:49.805Z,12.53
2023-04-18T18:20:19.491Z,12.40
2023-04-18T18:22:48.332Z,12.30
2023-04-18T18:25:17.065Z,12.83
2023-04-18T18:27:45.922Z,14.03
2023-04-18T18:30:16.211Z,14.00
2023-04-18T18:32:44.985Z,13.70
2023-04-18T18:35:13.800Z,13.93
2023-04-18T18:37:42.669Z,15.73
2023-04-18T18:40:12.075Z,17.17
2023-04-18T18:42:41.823Z,16.67
2023-04-18T18:45:11.339Z,12.80
2023-04-18T18:47:41.411Z,13.13
2023-04-18T18:50:11.157Z,13.27
2023-04-18T18:52:42.995Z,13.43
2023-04-18T18:55:11.806Z,13.67
2023-04-18T18:57:40.475Z,16.37
2023-04-18T19:00:12.092Z,14.77
2023-04-18T19:02:42.586Z,16.40
2023-04-18T19:05:12.652Z,14.77
2023-04-18T19:07:42.886Z,15.30
2023-04-18T19:10:12.171Z,15.53
2023-04-18T19:12:40.956Z,15.13
2023-04-18T19:15:10.800Z,17.90
2023-04-18T19:17:39.516Z,14.40
2023-04-18T19:20:11.141Z,16.43
2023-04-18T19:22:40.161Z,13.60
2023-04-18T19:25:10.281Z,16.23
2023-04-18T19:27:38.844Z,15.87
2023-04-18T19:30:08.801Z,14.33
2023-04-18T19:32:37.666Z,17.23
2023-04-18T19:35:07.131Z,15.43
2023-04-18T19:37:37.237Z,15.33
2023-04-18T19:40:07.483Z,19.10
2023-04-18T19:42:36.217Z,17.03
2023-04-18T19:45:05.795Z,17.60
2023-04-18T19:47:34.882Z,16.00
2023-04-18T19:50:03.699Z,18.40
2023-04-18T19:52:32.445Z,14.40
2023-04-18T19:55:03.041Z,16.50
2023-04-18T19:57:31.932Z,17.07
2023-04-18T20:00:00.606Z,15.93
2023-04-18T20:02:29.489Z,15.60
2023-04-18T20:04:58.713Z,13.10
2023-04-18T20:07:27.594Z,13.67
2023-04-18T20:09:56.402Z,13.07
2023-04-18T20:12:26.499Z,11.80
2023-04-18T20:14:58.571Z,13.90
2023-04-18T20:17:27.787Z,12.57
2023-04-18T20:19:57.134Z,13.43
2023-04-18T20:22:26.820Z,13.53
2023-04-18T20:24:57.286Z,13.87
2023-04-18T20:27:27.392Z,15.80
2023-04-18T20:29:57.304Z,15.13
2023-04-18T20:32:26.733Z,14.07
2023-04-18T20:34:55.664Z,16.57
2023-04-18T20:37:24.557Z,14.93
2023-04-18T20:39:55.635Z,14.60
2023-04-18T20:42:24.257Z,13.60
2023-04-18T20:44:54.644Z,12.87
2023-04-18T20:47:23.393Z,13.10
2023-04-18T20:49:52.109Z,13.57
2023-04-18T20:52:20.887Z,14.40
2023-04-18T20:54:49.654Z,13.87
2023-04-18T20:57:21.284Z,14.00
2023-04-18T20:59:50.046Z,13.30
2023-04-18T21:02:20.349Z,13.37
2023-04-18T21:04:49.383Z,14.90
2023-04-18T21:07:18.269Z,13.40
2023-04-18T21:09:47.125Z,13.10
2023-04-18T21:12:15.771Z,12.20
2023-04-18T21:14:44.481Z,14.10
2023-04-18T21:17:17.265Z,9.73
2023-04-18T21:19:48.305Z,13.30
2023-04-18T21:22:17.922Z,11.73
2023-04-18T21:24:46.827Z,13.53
2023-04-18T21:27:16.317Z,12.57
2023-04-18T21:29:45.140Z,11.00
2023-04-18T21:32:13.751Z,12.23
2023-04-18T21:34:42.447Z,9.47
2023-04-18T21:37:12.456Z,8.47
2023-04-18T21:39:42.550Z,11.10
2023-04-18T21:42:12.070Z,10.53
2023-04-18T21:44:40.681Z,8.00
2023-04-18T21:47:09.294Z,10.67
2023-04-18T21:49:37.904Z,9.73
2023-04-18T21:52:07.793Z,8.17
2023-04-18T21:54:37.969Z,8.60
2023-04-18T21:57:07.044Z,7.60
2023-04-18T21:59:35.775Z,6.60
2023-04-18T22:02:04.920Z,5.70
2023-04-18T22:04:33.865Z,7.63
2023-04-18T22:07:02.658Z,6.13
2023-04-18T22:09:31.457Z,6.67
2023-04-18T22:12:03.377Z,7.07
2023-04-18T22:14:32.740Z,5.53
2023-04-18T22:17:03.318Z,5.93
2023-04-18T22:19:32.118Z,6.70
2023-04-18T22:22:00.829Z,7.63
2023-04-18T22:24:29.507Z,6.43
2023-04-18T22:26:58.241Z,6.23
2023-04-18T22:29:28.212Z,5.03
2023-04-18T22:31:56.946Z,8.10
2023-04-18T22:34:25.616Z,6.03
2023-04-18T22:36:54.695Z,7.27
2023-04-18T22:39:23.476Z,8.77
2023-04-18T22:41:52.198Z,6.50
2023-04-18T22:44:20.906Z,8.23
2023-04-18T22:46:54.654Z,8.77
2023-04-18T22:49:23.400Z,10.33
2023-04-18T22:51:54.579Z,10.07
2023-04-18T22:54:23.537Z,8.43
2023-04-18T22:56:52.391Z,8.77
2023-04-18T22:59:21.152Z,7.90
2023-04-18T23:01:51.433Z,7.93
2023-04-18T23:04:20.482Z,6.33
2023-04-18T23:06:49.297Z,10.30
2023-04-18T23:09:19.681Z,7.23
2023-04-18T23:11:48.568Z,6.77
2023-04-18T23:14:17.307Z,5.13
2023-04-18T23:16:46.149Z,6.63
2023-04-18T23:19:16.144Z,7.37
2023-04-18T23:21:45.955Z,8.23
2023-04-18T23:24:15.896Z,7.77
2023-04-18T23:26:44.857Z,8.37
2023-04-18T23:29:13.530Z,6.90
2023-04-18T23:31:42.321Z,6.50
2023-04-18T23:34:11.394Z,9.60
2023-04-18T23:36:42.357Z,6.00
2023-04-18T23:39:11.031Z,8.37
2023-04-18T23:41:39.610Z,6.40
2023-04-18T23:44:08.486Z,5.80
2023-04-18T23:46:37.199Z,5.83
2023-04-18T23:49:05.944Z,6.87
2023-04-18T23:51:34.913Z,7.47
2023-04-18T23:54:04.958Z,5.77
2023-04-18T23:56:33.622Z,5.43
2023-04-18T23:59:02.343Z,6.47
